sensor_id;sensor_type;location;lat;lon;timestamp;pressure;altitude;pressure_sealevel;temperature;humidity
6204;BME280;3135;42.602;23.468;2023-12-20T00:01:46;149266.84;;;-0.37;100.00
6204;BME280;3135;42.602;23.468;2023-12-20T00:04:12;149295.09;;;-0.26;100.00
6204;BME280;3135;42.602;23.468;2023-12-20T00:06:37;149297.66;;;-0.25;100.00
6204;BME280;3135;42.602;23.468;2023-12-20T00:09:03;149270.69;;;-0.36;100.00
6204;BME280;3135;42.602;23.468;2023-12-20T00:11:28;149296.38;;;-0.26;100.00
6204;BME280;3135;42.602;23.468;2023-12-20T00:13:53;149216.72;;;-0.57;100.00
6204;BME280;3135;42.602;23.468;2023-12-20T00:16:19;149346.47;;;-0.06;100.00
6204;BME280;3135;42.602;23.468;2023-12-20T00:18:44;149268.13;;;-0.37;100.00
6204;BME280;3135;42.602;23.468;2023-12-20T00:21:10;149300.22;;;-0.24;100.00
6204;BME280;3135;42.602;23.468;2023-12-20T00:23:35;149256.56;;;-0.41;100.00
6204;BME280;3135;42.602;23.468;2023-12-20T00:26:01;149212.88;;;-0.59;100.00
6204;BME280;3135;42.602;23.468;2023-12-20T00:28:26;149251.41;;;-0.43;100.00
6204;BME280;3135;42.602;23.468;2023-12-20T00:30:51;149221.91;;;-0.55;100.00
6204;BME280;3135;42.602;23.468;2023-12-20T00:33:17;149274.53;;;-0.34;100.00
6204;BME280;3135;42.602;23.468;2023-12-20T00:35:42;149282.25;;;-0.31;100.00
6204;BME280;3135;42.602;23.468;2023-12-20T00:38:08;149302.81;;;-0.23;100.00
6204;BME280;3135;42.602;23.468;2023-12-20T00:40:34;149269.41;;;-0.36;100.00
6204;BME280;3135;42.602;23.468;2023-12-20T00:43:00;149261.69;;;-0.39;100.00
6204;BME280;3135;42.602;23.468;2023-12-20T00:45:25;149277.09;;;-0.33;100.00
6204;BME280;3135;42.602;23.468;2023-12-20T00:47:50;149248.84;;;-0.44;100.00
6204;BME280;3135;42.602;23.468;2023-12-20T00:50:16;149227.00;;;-0.53;100.00
6204;BME280;3135;42.602;23.468;2023-12-20T00:52:41;149247.56;;;-0.45;100.00
6204;BME280;3135;42.602;23.468;2023-12-20T00:55:07;149288.66;;;-0.29;100.00
6204;BME280;3135;42.602;23.468;2023-12-20T00:57:33;149257.84;;;-0.41;100.00
6204;BME280;3135;42.602;23.468;2023-12-20T00:59:58;149223.16;;;-0.55;100.00
6204;BME280;3135;42.602;23.468;2023-12-20T01:02:23;149225.72;;;-0.54;100.00
6204;BME280;3135;42.602;23.468;2023-12-20T01:04:49;149206.44;;;-0.61;100.00
6204;BME280;3135;42.602;23.468;2023-12-20T01:07:14;149268.13;;;-0.37;100.00
6204;BME280;3135;42.602;23.468;2023-12-20T01:09:40;149261.69;;;-0.39;100.00
6204;BME280;3135;42.602;23.468;2023-12-20T01:12:05;149251.41;;;-0.43;100.00
6204;BME280;3135;42.602;23.468;2023-12-20T01:14:31;149247.56;;;-0.45;100.00
6204;BME280;3135;42.602;23.468;2023-12-20T01:16:56;149228.28;;;-0.53;100.00
6204;BME280;3135;42.602;23.468;2023-12-20T01:19:22;149143.53;;;-0.86;100.00
6204;BME280;3135;42.602;23.468;2023-12-20T01:21:49;149174.38;;;-0.74;100.00
6204;BME280;3135;42.602;23.468;2023-12-20T01:24:14;149214.16;;;-0.58;100.00
6204;BME280;3135;42.602;23.468;2023-12-20T01:26:39;149223.16;;;-0.55;100.00
6204;BME280;3135;42.602;23.468;2023-12-20T01:29:05;149210.34;;;-0.60;100.00
6204;BME280;3135;42.602;23.468;2023-12-20T01:31:30;149182.06;;;-0.71;100.00
6204;BME280;3135;42.602;23.468;2023-12-20T01:33:56;149198.78;;;-0.64;100.00
6204;BME280;3135;42.602;23.468;2023-12-20T01:36:21;149139.72;;;-0.88;100.00
6204;BME280;3135;42.602;23.468;2023-12-20T01:38:46;149139.72;;;-0.88;100.00
6204;BME280;3135;42.602;23.468;2023-12-20T01:41:12;149102.47;;;-1.02;100.00
6204;BME280;3135;42.602;23.468;2023-12-20T01:43:37;149097.31;;;-1.05;100.00
6204;BME280;3135;42.602;23.468;2023-12-20T01:46:03;149184.66;;;-0.70;100.00
6204;BME280;3135;42.602;23.468;2023-12-20T01:48:29;149138.44;;;-0.88;100.00
6204;BME280;3135;42.602;23.468;2023-12-20T01:50:57;149133.25;;;-0.90;100.00
6204;BME280;3135;42.602;23.468;2023-12-20T01:53:23;149116.59;;;-0.97;100.00
6204;BME280;3135;42.602;23.468;2023-12-20T01:55:52;149182.06;;;-0.71;100.00
6204;BME280;3135;42.602;23.468;2023-12-20T01:58:19;149151.25;;;-0.83;100.00
6204;BME280;3135;42.602;23.468;2023-12-20T02:00:45;149170.50;;;-0.75;100.00
6204;BME280;3135;42.602;23.468;2023-12-20T02:03:11;149239.84;;;-0.48;100.00
6204;BME280;3135;42.602;23.468;2023-12-20T02:05:37;149214.16;;;-0.58;100.00
6204;BME280;3135;42.602;23.468;2023-12-20T02:08:03;149180.78;;;-0.71;100.00
6204;BME280;3135;42.602;23.468;2023-12-20T02:10:29;149218.00;;;-0.57;100.00
6204;BME280;3135;42.602;23.468;2023-12-20T02:12:55;149189.78;;;-0.68;100.00
6204;BME280;3135;42.602;23.468;2023-12-20T02:15:20;149265.53;;;-0.38;100.00
6204;BME280;3135;42.602;23.468;2023-12-20T02:17:47;149243.72;;;-0.46;100.00
6204;BME280;3135;42.602;23.468;2023-12-20T02:20:13;149254.03;;;-0.42;100.00
6204;BME280;3135;42.602;23.468;2023-12-20T02:22:39;149242.47;;;-0.47;100.00
6204;BME280;3135;42.602;23.468;2023-12-20T02:25:04;149256.56;;;-0.41;100.00
6204;BME280;3135;42.602;23.468;2023-12-20T02:27:30;149182.06;;;-0.71;100.00
6204;BME280;3135;42.602;23.468;2023-12-20T02:29:55;149130.72;;;-0.91;100.00
6204;BME280;3135;42.602;23.468;2023-12-20T02:32:22;149106.31;;;-1.01;100.00
6204;BME280;3135;42.602;23.468;2023-12-20T02:34:51;149148.72;;;-0.84;100.00
6204;BME280;3135;42.602;23.468;2023-12-20T02:37:16;149173.09;;;-0.74;100.00
6204;BME280;3135;42.602;23.468;2023-12-20T02:39:42;149160.25;;;-0.80;100.00
6204;BME280;3135;42.602;23.468;2023-12-20T02:42:09;149189.78;;;-0.68;100.00
6204;BME280;3135;42.602;23.468;2023-12-20T02:44:34;149153.81;;;-0.82;100.00
6204;BME280;3135;42.602;23.468;2023-12-20T02:47:00;149169.22;;;-0.76;100.00
6204;BME280;3135;42.602;23.468;2023-12-20T02:49:25;149206.44;;;-0.61;100.00
6204;BME280;3135;42.602;23.468;2023-12-20T02:51:51;149143.53;;;-0.86;100.00
6204;BME280;3135;42.602;23.468;2023-12-20T02:54:16;149212.88;;;-0.59;100.00
6204;BME280;3135;42.602;23.468;2023-12-20T02:56:41;149214.16;;;-0.58;100.00
6204;BME280;3135;42.602;23.468;2023-12-20T02:59:07;149182.06;;;-0.71;100.00
6204;BME280;3135;42.602;23.468;2023-12-20T03:01:34;149138.44;;;-0.88;100.00
6204;BME280;3135;42.602;23.468;2023-12-20T03:04:00;149152.53;;;-0.83;100.00
6204;BME280;3135;42.602;23.468;2023-12-20T03:06:25;149151.25;;;-0.83;100.00
6204;BME280;3135;42.602;23.468;2023-12-20T03:08:51;149133.25;;;-0.90;100.00
6204;BME280;3135;42.602;23.468;2023-12-20T03:11:16;149161.53;;;-0.79;100.00
6204;BME280;3135;42.602;23.468;2023-12-20T03:13:42;149117.88;;;-0.96;100.00
6204;BME280;3135;42.602;23.468;2023-12-20T03:16:11;149126.88;;;-0.93;100.00
6204;BME280;3135;42.602;23.468;2023-12-20T03:18:37;149085.78;;;-1.09;100.00
6204;BME280;3135;42.602;23.468;2023-12-20T03:21:03;149143.53;;;-0.86;100.00
6204;BME280;3135;42.602;23.468;2023-12-20T03:23:29;149203.88;;;-0.62;100.00
6204;BME280;3135;42.602;23.468;2023-12-20T03:25:56;149176.94;;;-0.73;100.00
6204;BME280;3135;42.602;23.468;2023-12-20T03:28:21;149184.66;;;-0.70;100.00
6204;BME280;3135;42.602;23.468;2023-12-20T03:30:48;149167.94;;;-0.77;100.00
6204;BME280;3135;42.602;23.468;2023-12-20T03:33:13;149179.50;;;-0.72;100.00
6204;BME280;3135;42.602;23.468;2023-12-20T03:35:39;149144.81;;;-0.86;100.00
6204;BME280;3135;42.602;23.468;2023-12-20T03:38:04;149089.66;;;-1.08;100.00
6204;BME280;3135;42.602;23.468;2023-12-20T03:40:29;149067.81;;;-1.16;100.00
6204;BME280;3135;42.602;23.468;2023-12-20T03:42:55;148985.69;;;-1.49;100.00
6204;BME280;3135;42.602;23.468;2023-12-20T03:45:20;149089.66;;;-1.08;100.00
6204;BME280;3135;42.602;23.468;2023-12-20T03:47:46;149085.78;;;-1.09;100.00
6204;BME280;3135;42.602;23.468;2023-12-20T03:50:11;149125.59;;;-0.93;100.00
6204;BME280;3135;42.602;23.468;2023-12-20T03:52:37;149066.53;;;-1.17;100.00
6204;BME280;3135;42.602;23.468;2023-12-20T03:55:02;149040.88;;;-1.27;100.00
6204;BME280;3135;42.602;23.468;2023-12-20T03:57:28;148999.78;;;-1.43;100.00
6204;BME280;3135;42.602;23.468;2023-12-20T03:59:53;149013.91;;;-1.38;100.00
6204;BME280;3135;42.602;23.468;2023-12-20T04:02:19;149052.38;;;-1.22;100.00
6204;BME280;3135;42.602;23.468;2023-12-20T04:04:44;149085.78;;;-1.09;100.00
6204;BME280;3135;42.602;23.468;2023-12-20T04:07:09;149063.94;;;-1.18;100.00
6204;BME280;3135;42.602;23.468;2023-12-20T04:09:35;149133.25;;;-0.90;100.00
6204;BME280;3135;42.602;23.468;2023-12-20T04:12:00;149074.22;;;-1.14;100.00
6204;BME280;3135;42.602;23.468;2023-12-20T04:14:26;149052.38;;;-1.22;100.00
6204;BME280;3135;42.602;23.468;2023-12-20T04:16:52;149078.09;;;-1.12;100.00
6204;BME280;3135;42.602;23.468;2023-12-20T04:19:17;149055.00;;;-1.21;100.00
6204;BME280;3135;42.602;23.468;2023-12-20T04:21:43;149053.72;;;-1.22;100.00
6204;BME280;3135;42.602;23.468;2023-12-20T04:24:08;149071.66;;;-1.15;100.00
6204;BME280;3135;42.602;23.468;2023-12-20T04:26:33;149138.44;;;-0.88;100.00
6204;BME280;3135;42.602;23.468;2023-12-20T04:28:59;149065.25;;;-1.17;100.00
6204;BME280;3135;42.602;23.468;2023-12-20T04:31:24;149051.09;;;-1.23;100.00
6204;BME280;3135;42.602;23.468;2023-12-20T04:33:50;149089.66;;;-1.08;100.00
6204;BME280;3135;42.602;23.468;2023-12-20T04:36:15;149081.94;;;-1.11;100.00
6204;BME280;3135;42.602;23.468;2023-12-20T04:38:41;149046.00;;;-1.25;100.00
6204;BME280;3135;42.602;23.468;2023-12-20T04:41:06;149044.72;;;-1.25;100.00
6204;BME280;3135;42.602;23.468;2023-12-20T04:43:32;149063.94;;;-1.18;100.00
6204;BME280;3135;42.602;23.468;2023-12-20T04:45:57;149022.88;;;-1.34;100.00
6204;BME280;3135;42.602;23.468;2023-12-20T04:48:23;149039.56;;;-1.27;100.00
6204;BME280;3135;42.602;23.468;2023-12-20T04:50:48;149038.28;;;-1.28;100.00
6204;BME280;3135;42.602;23.468;2023-12-20T04:53:13;149028.00;;;-1.32;100.00
6204;BME280;3135;42.602;23.468;2023-12-20T04:55:39;149076.81;;;-1.13;100.00
6204;BME280;3135;42.602;23.468;2023-12-20T04:58:04;148957.41;;;-1.60;100.00
6204;BME280;3135;42.602;23.468;2023-12-20T05:00:30;149031.88;;;-1.31;100.00
6204;BME280;3135;42.602;23.468;2023-12-20T05:02:55;149047.28;;;-1.24;100.00
6204;BME280;3135;42.602;23.468;2023-12-20T05:05:21;149025.44;;;-1.33;100.00
6204;BME280;3135;42.602;23.468;2023-12-20T05:07:46;149094.75;;;-1.06;100.00
6204;BME280;3135;42.602;23.468;2023-12-20T05:10:12;149061.38;;;-1.19;100.00
6204;BME280;3135;42.602;23.468;2023-12-20T05:12:37;149083.22;;;-1.10;100.00
6204;BME280;3135;42.602;23.468;2023-12-20T05:15:04;149055.00;;;-1.21;100.00
6204;BME280;3135;42.602;23.468;2023-12-20T05:17:30;149048.56;;;-1.24;100.00
6204;BME280;3135;42.602;23.468;2023-12-20T05:19:55;149061.38;;;-1.19;100.00
6204;BME280;3135;42.602;23.468;2023-12-20T05:22:21;149043.44;;;-1.26;100.00
6204;BME280;3135;42.602;23.468;2023-12-20T05:24:46;149116.59;;;-0.97;100.00
6204;BME280;3135;42.602;23.468;2023-12-20T05:27:12;149047.28;;;-1.24;100.00
6204;BME280;3135;42.602;23.468;2023-12-20T05:29:37;149063.94;;;-1.18;100.00
6204;BME280;3135;42.602;23.468;2023-12-20T05:32:03;149011.34;;;-1.39;100.00
6204;BME280;3135;42.602;23.468;2023-12-20T05:34:30;149025.44;;;-1.33;100.00
6204;BME280;3135;42.602;23.468;2023-12-20T05:36:55;149037.00;;;-1.29;100.00
6204;BME280;3135;42.602;23.468;2023-12-20T05:39:21;149034.44;;;-1.30;100.00
6204;BME280;3135;42.602;23.468;2023-12-20T05:41:47;149072.94;;;-1.14;100.00
6204;BME280;3135;42.602;23.468;2023-12-20T05:44:13;149013.91;;;-1.38;100.00
6204;BME280;3135;42.602;23.468;2023-12-20T05:46:38;149039.56;;;-1.27;100.00
6204;BME280;3135;42.602;23.468;2023-12-20T05:49:05;149078.09;;;-1.12;100.00
6204;BME280;3135;42.602;23.468;2023-12-20T05:51:31;149055.00;;;-1.21;100.00
6204;BME280;3135;42.602;23.468;2023-12-20T05:53:56;149103.75;;;-1.02;100.00
6204;BME280;3135;42.602;23.468;2023-12-20T05:56:21;149039.56;;;-1.27;100.00
6204;BME280;3135;42.602;23.468;2023-12-20T05:58:47;149047.28;;;-1.24;100.00
6204;BME280;3135;42.602;23.468;2023-12-20T06:01:14;149026.72;;;-1.33;100.00
6204;BME280;3135;42.602;23.468;2023-12-20T06:03:42;149030.59;;;-1.31;100.00
6204;BME280;3135;42.602;23.468;2023-12-20T06:06:08;149051.09;;;-1.23;100.00
6204;BME280;3135;42.602;23.468;2023-12-20T06:08:34;148992.06;;;-1.46;100.00
6204;BME280;3135;42.602;23.468;2023-12-20T06:10:59;149047.28;;;-1.24;100.00
6204;BME280;3135;42.602;23.468;2023-12-20T06:13:25;149004.91;;;-1.41;100.00
6204;BME280;3135;42.602;23.468;2023-12-20T06:15:51;149081.94;;;-1.11;100.00
6204;BME280;3135;42.602;23.468;2023-12-20T06:18:17;149080.66;;;-1.11;100.00
6204;BME280;3135;42.602;23.468;2023-12-20T06:20:42;149070.38;;;-1.15;100.00
6204;BME280;3135;42.602;23.468;2023-12-20T06:23:08;149090.94;;;-1.07;100.00
6204;BME280;3135;42.602;23.468;2023-12-20T06:25:33;148985.69;;;-1.49;100.00
6204;BME280;3135;42.602;23.468;2023-12-20T06:27:58;149010.06;;;-1.39;100.00
6204;BME280;3135;42.602;23.468;2023-12-20T06:30:24;149004.91;;;-1.41;100.00
6204;BME280;3135;42.602;23.468;2023-12-20T06:32:50;148958.75;;;-1.60;100.00
6204;BME280;3135;42.602;23.468;2023-12-20T06:35:16;149056.25;;;-1.21;100.00
6204;BME280;3135;42.602;23.468;2023-12-20T06:37:41;149030.59;;;-1.31;100.00
6204;BME280;3135;42.602;23.468;2023-12-20T06:40:10;149070.38;;;-1.15;100.00
6204;BME280;3135;42.602;23.468;2023-12-20T06:42:35;149063.94;;;-1.18;100.00
6204;BME280;3135;42.602;23.468;2023-12-20T06:45:01;149076.81;;;-1.13;100.00
6204;BME280;3135;42.602;23.468;2023-12-20T06:47:26;149074.22;;;-1.14;100.00
6204;BME280;3135;42.602;23.468;2023-12-20T06:49:52;148989.50;;;-1.47;100.00
6204;BME280;3135;42.602;23.468;2023-12-20T06:52:17;149112.75;;;-0.98;100.00
6204;BME280;3135;42.602;23.468;2023-12-20T06:54:43;149056.25;;;-1.21;100.00
6204;BME280;3135;42.602;23.468;2023-12-20T06:57:08;149013.91;;;-1.38;100.00
6204;BME280;3135;42.602;23.468;2023-12-20T06:59:39;149015.16;;;-1.37;100.00
6204;BME280;3135;42.602;23.468;2023-12-20T07:02:05;149012.63;;;-1.38;100.00
6204;BME280;3135;42.602;23.468;2023-12-20T07:04:30;149028.00;;;-1.32;100.00
6204;BME280;3135;42.602;23.468;2023-12-20T07:06:56;149049.81;;;-1.23;100.00
6204;BME280;3135;42.602;23.468;2023-12-20T07:09:22;149031.88;;;-1.31;100.00
6204;BME280;3135;42.602;23.468;2023-12-20T07:11:48;149063.94;;;-1.18;100.00
6204;BME280;3135;42.602;23.468;2023-12-20T07:14:14;149053.72;;;-1.22;100.00
6204;BME280;3135;42.602;23.468;2023-12-20T07:16:39;149039.56;;;-1.27;100.00
6204;BME280;3135;42.602;23.468;2023-12-20T07:19:05;148968.97;;;-1.56;100.00
6204;BME280;3135;42.602;23.468;2023-12-20T07:21:31;149021.63;;;-1.35;100.00
6204;BME280;3135;42.602;23.468;2023-12-20T07:23:57;149057.53;;;-1.20;100.00
6204;BME280;3135;42.602;23.468;2023-12-20T07:26:22;149063.94;;;-1.18;100.00
6204;BME280;3135;42.602;23.468;2023-12-20T07:28:48;149076.81;;;-1.13;100.00
6204;BME280;3135;42.602;23.468;2023-12-20T07:31:15;149046.00;;;-1.25;100.00
6204;BME280;3135;42.602;23.468;2023-12-20T07:33:41;149079.38;;;-1.12;100.00
6204;BME280;3135;42.602;23.468;2023-12-20T07:36:07;149076.81;;;-1.13;100.00
6204;BME280;3135;42.602;23.468;2023-12-20T07:38:32;148999.78;;;-1.43;100.00
6204;BME280;3135;42.602;23.468;2023-12-20T07:40:58;149087.03;;;-1.09;100.00
6204;BME280;3135;42.602;23.468;2023-12-20T07:43:23;149083.22;;;-1.10;100.00
6204;BME280;3135;42.602;23.468;2023-12-20T07:45:49;149101.22;;;-1.03;100.00
6204;BME280;3135;42.602;23.468;2023-12-20T07:48:14;149051.09;;;-1.23;100.00
6204;BME280;3135;42.602;23.468;2023-12-20T07:50:39;149003.63;;;-1.42;100.00
6204;BME280;3135;42.602;23.468;2023-12-20T07:53:05;149012.63;;;-1.38;100.00
6204;BME280;3135;42.602;23.468;2023-12-20T07:55:31;149040.88;;;-1.27;100.00
6204;BME280;3135;42.602;23.468;2023-12-20T07:57:57;149061.38;;;-1.19;100.00
6204;BME280;3135;42.602;23.468;2023-12-20T08:00:22;149040.88;;;-1.27;100.00
6204;BME280;3135;42.602;23.468;2023-12-20T08:02:48;149117.88;;;-0.96;100.00
6204;BME280;3135;42.602;23.468;2023-12-20T08:05:13;149144.81;;;-0.86;100.00
6204;BME280;3135;42.602;23.468;2023-12-20T08:07:39;149134.53;;;-0.90;100.00
6204;BME280;3135;42.602;23.468;2023-12-20T08:10:05;149125.59;;;-0.93;100.00
6204;BME280;3135;42.602;23.468;2023-12-20T08:12:30;149148.72;;;-0.84;100.00
6204;BME280;3135;42.602;23.468;2023-12-20T08:14:56;149202.63;;;-0.63;100.00
6204;BME280;3135;42.602;23.468;2023-12-20T08:17:22;149169.22;;;-0.76;100.00
6204;BME280;3135;42.602;23.468;2023-12-20T08:19:48;149210.34;;;-0.60;100.00
6204;BME280;3135;42.602;23.468;2023-12-20T08:22:14;149133.25;;;-0.90;100.00
6204;BME280;3135;42.602;23.468;2023-12-20T08:24:39;149216.72;;;-0.57;100.00
6204;BME280;3135;42.602;23.468;2023-12-20T08:27:05;149259.13;;;-0.40;100.00
6204;BME280;3135;42.602;23.468;2023-12-20T08:29:30;149277.09;;;-0.33;100.00
6204;BME280;3135;42.602;23.468;2023-12-20T08:31:56;149187.22;;;-0.69;100.00
6204;BME280;3135;42.602;23.468;2023-12-20T08:34:22;149170.50;;;-0.75;100.00
6204;BME280;3135;42.602;23.468;2023-12-20T08:36:50;149182.06;;;-0.71;100.00
6204;BME280;3135;42.602;23.468;2023-12-20T08:39:15;149197.50;;;-0.65;100.00
6204;BME280;3135;42.602;23.468;2023-12-20T08:41:40;149227.00;;;-0.53;100.00
6204;BME280;3135;42.602;23.468;2023-12-20T08:44:06;149212.88;;;-0.59;100.00
6204;BME280;3135;42.602;23.468;2023-12-20T08:46:31;149273.25;;;-0.35;100.00
6204;BME280;3135;42.602;23.468;2023-12-20T08:48:57;149259.13;;;-0.40;100.00
6204;BME280;3135;42.602;23.468;2023-12-20T08:51:22;149266.84;;;-0.37;100.00
6204;BME280;3135;42.602;23.468;2023-12-20T08:53:51;149283.53;;;-0.31;100.00
6204;BME280;3135;42.602;23.468;2023-12-20T08:56:16;149289.97;;;-0.28;100.00
6204;BME280;3135;42.602;23.468;2023-12-20T08:58:43;149320.78;;;-0.16;100.00
6204;BME280;3135;42.602;23.468;2023-12-20T09:01:09;149368.31;;;0.03;100.00
6204;BME280;3135;42.602;23.468;2023-12-20T09:03:34;149347.75;;;-0.05;100.00
6204;BME280;3135;42.602;23.468;2023-12-20T09:06:00;149382.44;;;0.09;100.00
6204;BME280;3135;42.602;23.468;2023-12-20T09:08:25;149325.94;;;-0.14;100.00
6204;BME280;3135;42.602;23.468;2023-12-20T09:10:51;149298.94;;;-0.24;100.00
6204;BME280;3135;42.602;23.468;2023-12-20T09:13:16;149143.53;;;-0.86;100.00
6204;BME280;3135;42.602;23.468;2023-12-20T09:15:42;149211.63;;;-0.59;100.00
6204;BME280;3135;42.602;23.468;2023-12-20T09:18:07;149224.44;;;-0.54;100.00
6204;BME280;3135;42.602;23.468;2023-12-20T09:20:34;149313.06;;;-0.19;100.00
6204;BME280;3135;42.602;23.468;2023-12-20T09:22:59;149210.34;;;-0.60;100.00
6204;BME280;3135;42.602;23.468;2023-12-20T09:25:25;149243.72;;;-0.46;100.00
6204;BME280;3135;42.602;23.468;2023-12-20T09:27:52;149307.94;;;-0.21;100.00
6204;BME280;3135;42.602;23.468;2023-12-20T09:30:18;149284.81;;;-0.30;100.00
6204;BME280;3135;42.602;23.468;2023-12-20T09:32:43;149228.28;;;-0.53;100.00
6204;BME280;3135;42.602;23.468;2023-12-20T09:35:09;149269.41;;;-0.36;100.00
6204;BME280;3135;42.602;23.468;2023-12-20T09:37:34;149198.78;;;-0.64;100.00
6204;BME280;3135;42.602;23.468;2023-12-20T09:40:00;149252.69;;;-0.43;100.00
6204;BME280;3135;42.602;23.468;2023-12-20T09:42:37;149304.09;;;-0.22;100.00
6204;BME280;3135;42.602;23.468;2023-12-20T09:45:08;149248.84;;;-0.44;100.00
6204;BME280;3135;42.602;23.468;2023-12-20T09:47:34;149296.38;;;-0.26;100.00
6204;BME280;3135;42.602;23.468;2023-12-20T09:50:01;149369.59;;;0.04;100.00
6204;BME280;3135;42.602;23.468;2023-12-20T09:52:26;149400.47;;;0.16;100.00
6204;BME280;3135;42.602;23.468;2023-12-20T09:54:52;149439.00;;;0.31;100.00
6204;BME280;3135;42.602;23.468;2023-12-20T09:57:20;149454.41;;;0.37;100.00
6204;BME280;3135;42.602;23.468;2023-12-20T09:59:45;149480.16;;;0.47;100.00
6204;BME280;3135;42.602;23.468;2023-12-20T10:02:13;149503.31;;;0.57;100.00
6204;BME280;3135;42.602;23.468;2023-12-20T10:04:46;149435.16;;;0.30;100.00
6204;BME280;3135;42.602;23.468;2023-12-20T10:07:11;149439.00;;;0.31;100.00
6204;BME280;3135;42.602;23.468;2023-12-20T10:09:38;149490.41;;;0.51;100.00
6204;BME280;3135;42.602;23.468;2023-12-20T10:12:04;149520.00;;;0.63;100.00
6204;BME280;3135;42.602;23.468;2023-12-20T10:14:30;149513.53;;;0.61;100.00
6204;BME280;3135;42.602;23.468;2023-12-20T10:17:04;149441.56;;;0.32;100.00
6204;BME280;3135;42.602;23.468;2023-12-20T10:19:31;149418.44;;;0.23;100.00
6204;BME280;3135;42.602;23.468;2023-12-20T10:21:58;149360.66;;;0.00;100.00
6204;BME280;3135;42.602;23.468;2023-12-20T10:24:24;149387.63;;;0.11;100.00
6204;BME280;3135;42.602;23.468;2023-12-20T10:27:04;149415.88;;;0.22;100.00
6204;BME280;3135;42.602;23.468;2023-12-20T10:29:36;149419.72;;;0.23;100.00
6204;BME280;3135;42.602;23.468;2023-12-20T10:32:22;149453.13;;;0.37;100.00
6204;BME280;3135;42.602;23.468;2023-12-20T10:34:49;149468.59;;;0.43;100.00
6204;BME280;3135;42.602;23.468;2023-12-20T10:37:14;149451.84;;;0.36;100.00
6204;BME280;3135;42.602;23.468;2023-12-20T10:39:42;149395.28;;;0.14;100.00
6204;BME280;3135;42.602;23.468;2023-12-20T10:42:10;149351.63;;;-0.04;100.00
6204;BME280;3135;42.602;23.468;2023-12-20T10:44:36;149477.56;;;0.46;100.00
6204;BME280;3135;42.602;23.468;2023-12-20T10:47:02;149449.28;;;0.35;100.00
6204;BME280;3135;42.602;23.468;2023-12-20T10:49:30;149484.00;;;0.49;100.00
6204;BME280;3135;42.602;23.468;2023-12-20T10:51:56;149478.84;;;0.47;100.00
6204;BME280;3135;42.602;23.468;2023-12-20T10:54:25;149442.84;;;0.33;100.00
6204;BME280;3135;42.602;23.468;2023-12-20T10:56:52;149423.59;;;0.25;100.00
6204;BME280;3135;42.602;23.468;2023-12-20T10:59:19;149501.97;;;0.56;100.00
6204;BME280;3135;42.602;23.468;2023-12-20T11:01:47;149517.44;;;0.62;100.00
6204;BME280;3135;42.602;23.468;2023-12-20T11:04:16;149442.84;;;0.33;100.00
6204;BME280;3135;42.602;23.468;2023-12-20T11:06:52;149414.59;;;0.21;100.00
6204;BME280;3135;42.602;23.468;2023-12-20T11:09:26;149430.00;;;0.28;100.00
6204;BME280;3135;42.602;23.468;2023-12-20T11:12:16;149471.16;;;0.44;100.00
6204;BME280;3135;42.602;23.468;2023-12-20T11:14:50;149480.16;;;0.47;100.00
6204;BME280;3135;42.602;23.468;2023-12-20T11:17:16;149486.56;;;0.50;100.00
6204;BME280;3135;42.602;23.468;2023-12-20T11:22:28;149527.72;;;0.66;100.00
6204;BME280;3135;42.602;23.468;2023-12-20T11:24:58;149568.84;;;0.83;100.00
6204;BME280;3135;42.602;23.468;2023-12-20T11:27:24;149523.84;;;0.65;100.00
6204;BME280;3135;42.602;23.468;2023-12-20T11:29:55;149540.56;;;0.71;100.00
6204;BME280;3135;42.602;23.468;2023-12-20T11:34:58;149527.72;;;0.66;100.00
6204;BME280;3135;42.602;23.468;2023-12-20T11:37:31;149570.13;;;0.83;100.00
6204;BME280;3135;42.602;23.468;2023-12-20T11:40:05;149577.88;;;0.86;100.00
6204;BME280;3135;42.602;23.468;2023-12-20T11:42:41;149584.25;;;0.89;100.00
6204;BME280;3135;42.602;23.468;2023-12-20T11:45:11;149603.56;;;0.96;100.00
6204;BME280;3135;42.602;23.468;2023-12-20T11:47:42;149544.44;;;0.73;100.00
6204;BME280;3135;42.602;23.468;2023-12-20T11:50:08;149575.31;;;0.85;100.00
6204;BME280;3135;42.602;23.468;2023-12-20T11:52:33;149559.84;;;0.79;100.00
6204;BME280;3135;42.602;23.468;2023-12-20T11:54:59;149575.31;;;0.85;100.00
6204;BME280;3135;42.602;23.468;2023-12-20T11:57:25;149588.16;;;0.90;100.00
6204;BME280;3135;42.602;23.468;2023-12-20T11:59:50;149651.16;;;1.15;100.00
6204;BME280;3135;42.602;23.468;2023-12-20T12:02:16;149610.03;;;0.99;100.00
6204;BME280;3135;42.602;23.468;2023-12-20T12:04:42;149595.84;;;0.93;100.00
6204;BME280;3135;42.602;23.468;2023-12-20T12:07:07;149585.53;;;0.89;100.00
6204;BME280;3135;42.602;23.468;2023-12-20T12:09:33;149582.97;;;0.88;100.00
6204;BME280;3135;42.602;23.468;2023-12-20T12:11:58;149595.84;;;0.93;100.00
6204;BME280;3135;42.602;23.468;2023-12-20T12:14:24;149554.72;;;0.77;100.00
6204;BME280;3135;42.602;23.468;2023-12-20T12:16:50;149563.72;;;0.81;100.00
6204;BME280;3135;42.602;23.468;2023-12-20T12:19:22;149549.53;;;0.75;100.00
6204;BME280;3135;42.602;23.468;2023-12-20T12:22:07;149572.69;;;0.84;100.00
6204;BME280;3135;42.602;23.468;2023-12-20T12:24:35;149633.13;;;1.08;100.00
6204;BME280;3135;42.602;23.468;2023-12-20T12:27:01;149646.03;;;1.13;100.00
6204;BME280;3135;42.602;23.468;2023-12-20T12:29:27;149696.19;;;1.33;100.00
6204;BME280;3135;42.602;23.468;2023-12-20T12:31:52;149701.31;;;1.35;100.00
6204;BME280;3135;42.602;23.468;2023-12-20T12:34:18;149631.84;;;1.08;100.00
6204;BME280;3135;42.602;23.468;2023-12-20T12:36:44;149653.72;;;1.16;100.00
6204;BME280;3135;42.602;23.468;2023-12-20T12:39:12;149648.59;;;1.14;100.00
6204;BME280;3135;42.602;23.468;2023-12-20T12:41:40;149657.59;;;1.18;100.00
6204;BME280;3135;42.602;23.468;2023-12-20T12:44:06;149670.47;;;1.23;100.00
6204;BME280;3135;42.602;23.468;2023-12-20T12:46:31;149625.44;;;1.05;100.00
6204;BME280;3135;42.602;23.468;2023-12-20T12:48:58;149601.00;;;0.95;100.00
6204;BME280;3135;42.602;23.468;2023-12-20T12:51:23;149572.69;;;0.84;100.00
6204;BME280;3135;42.602;23.468;2023-12-20T12:53:49;149611.31;;;0.99;100.00